Time;durP1;ratioP1;P1;durP2;ratioP2;P2;SDS_P1;SDS_P2;PMS_P1;PMS_P2;Temp;Humidity;BMP_temperature;BMP_pressure;BME280_temperature;BME280_humidity;BME280_pressure;Samples;Min_cycle;Max_cycle;Signal;HPM_P1;HPM_P2
2023/08/26 00:02:26;;;;;;;;;;;;;;;;;;4920354;28;121777;-84
2023/08/26 00:04:52;;;;;;;;;;;;;;;;;;4896717;28;98619;-84
2023/08/26 00:07:19;;;;;;;;;;;;;;;;;;4920109;28;92560;-84
2023/08/26 00:09:45;;;;;;;;;;;;;;;;;;4903807;28;94113;-84
2023/08/26 00:12:11;;;;;;;;;;;;;;;;;;4919544;28;120500;-85
2023/08/26 00:14:38;;;;;;;;;;;;;;;;;;4920288;28;121145;-84
2023/08/26 00:17:04;;;;;;;;;;;;;;;;;;4904148;28;103277;-85
2023/08/26 00:19:31;;;;;;;;;;;;;;;;;;4897623;28;121428;-84
2023/08/26 00:21:57;;;;;;;;;;;;;;;;;;4900735;28;122626;-84
2023/08/26 00:24:24;;;;;;;;;;;;;;;;;;4911900;28;121971;-84
2023/08/26 00:26:50;;;;;;;;;;;;;;;;;;4891970;28;121684;-84
2023/08/26 00:29:17;;;;;;;;;;;;;;;;;;4910511;28;118963;-84
2023/08/26 00:31:43;;;;;;;;;;;;;;;;;;4903431;28;92480;-84
2023/08/26 00:34:10;;;;;;;;;;;;;;;;;;4899959;28;120147;-84
2023/08/26 00:36:36;;;;;;;;;;;;;;;;;;4885902;28;96444;-84
2023/08/26 00:39:03;;;;;;;;;;;;;;;;;;4890971;28;94244;-84
2023/08/26 00:41:29;;;;;;;;;;;;;;;;;;4890318;28;112535;-84
2023/08/26 00:43:56;;;;;;;;;;;;;;;;;;4909125;28;92426;-84
2023/08/26 00:46:23;;;;;;;;;;;;;;;;;;4912529;28;121437;-85
2023/08/26 00:48:49;;;;;;;;;;;;;;;;;;4921979;28;120988;-85
2023/08/26 00:51:17;;;;;;;;;;;;;;;;;;4886129;28;93799;-84
2023/08/26 00:53:43;;;;;;;;;;;;;;;;;;4894865;28;95959;-84
2023/08/26 00:56:09;;;;;;;;;;;;;;;;;;4891887;28;94754;-84
2023/08/26 00:58:36;;;;;;;;;;;;;;;;;;4887938;28;124571;-84
2023/08/26 01:01:03;;;;;;;;;;;;;;;;;;4885480;28;122557;-84
2023/08/26 01:03:30;;;;;;;;;;;;;;;;;;4909275;28;91923;-84
2023/08/26 01:05:56;;;;;;;;;;;;;;;;;;4892103;28;122695;-84
2023/08/26 01:08:22;;;;;;;;;;;;;;;;;;4886761;28;124794;-85
2023/08/26 01:10:49;;;;;;;;;;;;;;;;;;4902737;28;94728;-84
2023/08/26 01:13:16;;;;;;;;;;;;;;;;;;4883201;28;94316;-84
2023/08/26 01:15:43;;;;;;;;;;;;;;;;;;4899077;28;114249;-84
2023/08/26 01:18:13;;;;;;;;;;;;;;;;;;4917156;28;93284;-85
2023/08/26 01:20:40;;;;;;;;;;;;;;;;;;4885226;28;94631;-84
2023/08/26 01:23:06;;;;;;;;;;;;;;;;;;4914931;28;120651;-84
2023/08/26 01:25:32;;;;;;;;;;;;;;;;;;4913956;28;106422;-85
2023/08/26 01:27:59;;;;;;;;;;;;;;;;;;4886403;28;92858;-84
2023/08/26 01:30:26;;;;;;;;;;;;;;;;;;4896564;28;92289;-84
2023/08/26 01:32:52;;;;;;;;;;;;;;;;;;4895566;28;104413;-85
2023/08/26 01:35:19;;;;;;;;;;;;;;;;;;4903542;28;120049;-85
2023/08/26 01:37:45;;;;;;;;;;;;;;;;;;4902938;28;118529;-84
2023/08/26 01:40:11;;;;;;;;;;;;;;;;;;4891203;28;94459;-85
2023/08/26 01:42:38;;;;;;;;;;;;;;;;;;4922126;28;93138;-84
2023/08/26 01:45:05;;;;;;;;;;;;;;;;;;4904502;28;121461;-84
2023/08/26 01:47:31;;;;;;;;;;;;;;;;;;4891672;28;110084;-85
2023/08/26 01:49:59;;;;;;;;;;;;;;;;;;4899733;28;95608;-85
2023/08/26 01:52:25;;;;;;;;;;;;;;;;;;4902723;28;117114;-85
2023/08/26 01:54:51;;;;;;;;;;;;;;;;;;4903716;28;92718;-85
2023/08/26 01:57:18;;;;;;;;;;;;;;;;;;4893832;28;99512;-85
2023/08/26 01:59:44;;;;;;;;;;;;;;;;;;4884567;28;115750;-85
2023/08/26 02:02:11;;;;;;;;;;;;;;;;;;4886076;28;123316;-85
2023/08/26 02:04:37;;;;;;;;;;;;;;;;;;4901625;28;99090;-85
2023/08/26 02:07:04;;;;;;;;;;;;;;;;;;4880109;28;121482;-84
2023/08/26 02:09:30;;;;;;;;;;;;;;;;;;4903423;28;122415;-84
2023/08/26 02:11:56;;;;;;;;;;;;;;;;;;4916666;28;97261;-84
2023/08/26 02:14:23;;;;;;;;;;;;;;;;;;4909754;28;109171;-84
2023/08/26 02:16:49;;;;;;;;;;;;;;;;;;4897785;28;95863;-84
2023/08/26 02:19:16;;;;;;;;;;;;;;;;;;4899164;28;123183;-84
2023/08/26 02:21:42;;;;;;;;;;;;;;;;;;4896810;28;119475;-84
2023/08/26 02:24:09;;;;;;;;;;;;;;;;;;4882939;28;111288;-84
2023/08/26 02:26:35;;;;;;;;;;;;;;;;;;4915836;28;107078;-84
2023/08/26 02:29:03;;;;;;;;;;;;;;;;;;4900747;28;102078;-84
2023/08/26 02:31:29;;;;;;;;;;;;;;;;;;4929629;28;93805;-85
2023/08/26 02:33:55;;;;;;;;;;;;;;;;;;4888146;28;121713;-83
2023/08/26 02:36:22;;;;;;;;;;;;;;;;;;4893244;28;123038;-84
2023/08/26 02:38:49;;;;;;;;;;;;;;;;;;4900548;28;92214;-84
2023/08/26 02:41:15;;;;;;;;;;;;;;;;;;4918611;28;121085;-85
2023/08/26 02:43:41;;;;;;;;;;;;;;;;;;4879728;28;125628;-84
2023/08/26 02:46:08;;;;;;;;;;;;;;;;;;4917948;28;119230;-84
2023/08/26 02:48:34;;;;;;;;;;;;;;;;;;4900159;28;94243;-84
2023/08/26 02:51:01;;;;;;;;;;;;;;;;;;4900580;28;100854;-85
2023/08/26 02:53:27;;;;;;;;;;;;;;;;;;4897134;28;123156;-86
2023/08/26 02:55:53;;;;;;;;;;;;;;;;;;4890799;28;115454;-83
2023/08/26 02:58:21;;;;;;;;;;;;;;;;;;4886528;28;94545;-83
2023/08/26 03:00:47;;;;;;;;;;;;;;;;;;4890258;28;124699;-82
2023/08/26 03:03:13;;;;;;;;;;;;;;;;;;4900019;28;101118;-82
2023/08/26 03:05:40;;;;;;;;;;;;;;;;;;4900190;28;94966;-83
2023/08/26 03:08:07;;;;;;;;;;;;;;;;;;4918904;28;115815;-82
2023/08/26 03:10:33;;;;;;;;;;;;;;;;;;4889876;28;105902;-83
2023/08/26 03:13:00;;;;;;;;;;;;;;;;;;4918973;28;121110;-83
2023/08/26 03:15:26;;;;;;;;;;;;;;;;;;4900747;28;93240;-84
2023/08/26 03:17:53;;;;;;;;;;;;;;;;;;4898442;28;121320;-84
2023/08/26 03:20:20;;;;;;;;;;;;;;;;;;4891446;28;94811;-82
2023/08/26 03:22:46;;;;;;;;;;;;;;;;;;4917033;28;123890;-81
2023/08/26 03:25:13;;;;;;;;;;;;;;;;;;4928980;28;120912;-81
2023/08/26 03:27:39;;;;;;;;;;;;;;;;;;4898781;28;122846;-81
2023/08/26 03:30:05;;;;;;;;;;;;;;;;;;4921045;28;92304;-81
2023/08/26 03:32:32;;;;;;;;;;;;;;;;;;4900099;28;93052;-81
2023/08/26 03:34:58;;;;;;;;;;;;;;;;;;4888263;28;120177;-81
2023/08/26 03:37:25;;;;;;;;;;;;;;;;;;4916431;28;121628;-81
2023/08/26 03:39:51;;;;;;;;;;;;;;;;;;4899625;28;125852;-82
2023/08/26 03:42:17;;;;;;;;;;;;;;;;;;4913478;28;108491;-81
2023/08/26 03:44:44;;;;;;;;;;;;;;;;;;4901298;28;120935;-81
2023/08/26 03:47:11;;;;;;;;;;;;;;;;;;4907453;28;120714;-81
2023/08/26 03:49:37;;;;;;;;;;;;;;;;;;4885122;28;106023;-81
2023/08/26 03:52:03;;;;;;;;;;;;;;;;;;4894669;28;120452;-82
2023/08/26 03:54:30;;;;;;;;;;;;;;;;;;4909696;28;120416;-80
2023/08/26 03:56:56;;;;;;;;;;;;;;;;;;4893383;28;122950;-81
2023/08/26 03:59:24;;;;;;;;;;;;;;;;;;4897777;28;112802;-81
2023/08/26 04:01:51;;;;;;;;;;;;;;;;;;4901138;28;122197;-81
2023/08/26 04:04:17;;;;;;;;;;;;;;;;;;4907724;28;121174;-80
2023/08/26 04:06:44;;;;;;;;;;;;;;;;;;4908337;28;120743;-81
2023/08/26 04:09:10;;;;;;;;;;;;;;;;;;4896602;28;123756;-80
2023/08/26 04:11:37;;;;;;;;;;;;;;;;;;4892280;28;123190;-80
2023/08/26 04:14:03;;;;;;;;;;;;;;;;;;4893550;28;107147;-81
2023/08/26 04:16:30;;;;;;;;;;;;;;;;;;4892858;28;121239;-80
2023/08/26 04:18:57;;;;;;;;;;;;;;;;;;4895467;28;125194;-80
2023/08/26 04:21:23;;;;;;;;;;;;;;;;;;4899513;28;119317;-80
2023/08/26 04:23:49;;;;;;;;;;;;;;;;;;4902735;28;106475;-79
2023/08/26 04:26:16;;;;;;;;;;;;;;;;;;4886320;28;121780;-80
2023/08/26 04:28:42;;;;;;;;;;;;;;;;;;4878404;28;118787;-80
2023/08/26 04:31:09;;;;;;;;;;;;;;;;;;4898347;28;100611;-80
2023/08/26 04:33:37;;;;;;;;;;;;;;;;;;4890671;28;92703;-80
2023/08/26 04:36:04;;;;;;;;;;;;;;;;;;4912812;28;113352;-80
2023/08/26 04:38:30;;;;;;;;;;;;;;;;;;4899673;28;106719;-80
2023/08/26 04:40:57;;;;;;;;;;;;;;;;;;4917894;28;124372;-80
2023/08/26 04:43:25;;;;;;;;;;;;;;;;;;4900362;28;122759;-81
2023/08/26 04:45:52;;;;;;;;;;;;;;;;;;4882959;28;124712;-80
2023/08/26 04:48:18;;;;;;;;;;;;;;;;;;4898771;28;99323;-81
2023/08/26 04:50:45;;;;;;;;;;;;;;;;;;4895911;28;121274;-80
2023/08/26 04:53:11;;;;;;;;;;;;;;;;;;4891600;28;96724;-80
2023/08/26 04:55:38;;;;;;;;;;;;;;;;;;4892559;28;91969;-80
2023/08/26 04:58:05;;;;;;;;;;;;;;;;;;4878288;28;94052;-80
2023/08/26 05:00:32;;;;;;;;;;;;;;;;;;4905555;28;120593;-79
2023/08/26 05:02:58;;;;;;;;;;;;;;;;;;4893001;28;125101;-80
2023/08/26 05:05:25;;;;;;;;;;;;;;;;;;4897417;28;94024;-80
2023/08/26 05:07:51;;;;;;;;;;;;;;;;;;4899986;28;94026;-82
2023/08/26 05:10:18;;;;;;;;;;;;;;;;;;4890088;28;94722;-81
2023/08/26 05:12:45;;;;;;;;;;;;;;;;;;4894061;28;93644;-81
2023/08/26 05:15:12;;;;;;;;;;;;;;;;;;4918225;28;122797;-81
2023/08/26 05:17:39;;;;;;;;;;;;;;;;;;4895477;28;92413;-81
2023/08/26 05:20:05;;;;;;;;;;;;;;;;;;4900378;28;120877;-83
2023/08/26 05:22:32;;;;;;;;;;;;;;;;;;4917480;28;93267;-81
2023/08/26 05:24:58;;;;;;;;;;;;;;;;;;4900545;28;122486;-81
2023/08/26 05:27:26;;;;;;;;;;;;;;;;;;4898591;28;106670;-81
2023/08/26 05:29:54;;;;;;;;;;;;;;;;;;4898985;28;94315;-81
2023/08/26 05:32:21;;;;;;;;;;;;;;;;;;4881921;28;93285;-81
2023/08/26 05:34:48;;;;;;;;;;;;;;;;;;4900870;28;100162;-82
2023/08/26 05:37:14;;;;;;;;;;;;;;;;;;4924606;28;122933;-83
2023/08/26 05:39:42;;;;;;;;;;;;;;;;;;4924560;28;92430;-82
2023/08/26 05:42:08;;;;;;;;;;;;;;;;;;4899235;28;93321;-82
2023/08/26 05:44:34;;;;;;;;;;;;;;;;;;4917946;28;121289;-82
2023/08/26 05:47:01;;;;;;;;;;;;;;;;;;4898475;28;97840;-83
2023/08/26 05:49:27;;;;;;;;;;;;;;;;;;4900067;28;92521;-82
2023/08/26 05:51:54;;;;;;;;;;;;;;;;;;4895257;28;123114;-82
2023/08/26 05:54:21;;;;;;;;;;;;;;;;;;4895107;28;96897;-82
2023/08/26 05:56:47;;;;;;;;;;;;;;;;;;4897410;28;94196;-81
2023/08/26 05:59:13;;;;;;;;;;;;;;;;;;4914707;28;92936;-82
2023/08/26 06:01:40;;;;;;;;;;;;;;;;;;4895659;28;110539;-83
2023/08/26 06:04:07;;;;;;;;;;;;;;;;;;4897652;28;94254;-82
2023/08/26 06:06:34;;;;;;;;;;;;;;;;;;4900179;28;94202;-82
2023/08/26 06:09:02;;;;;;;;;;;;;;;;;;4898334;28;94843;-82
2023/08/26 06:11:29;;;;;;;;;;;;;;;;;;4891707;28;93743;-81
2023/08/26 06:13:56;;;;;;;;;;;;;;;;;;4902781;28;102612;-80
2023/08/26 06:16:22;;;;;;;;;;;;;;;;;;4903596;28;112431;-81
2023/08/26 06:18:48;;;;;;;;;;;;;;;;;;4894677;28;110563;-80
2023/08/26 06:21:15;;;;;;;;;;;;;;;;;;4893410;28;120713;-81
2023/08/26 06:23:41;;;;;;;;;;;;;;;;;;4890328;28;123626;-82
2023/08/26 06:26:08;;;;;;;;;;;;;;;;;;4892096;28;94848;-81
2023/08/26 06:28:37;;;;;;;;;;;;;;;;;;4900881;28;96168;-82
2023/08/26 06:31:03;;;;;;;;;;;;;;;;;;4894039;28;92521;-82
2023/08/26 06:33:35;;;;;;;;;;;;;;;;;;4887207;28;93698;-81
2023/08/26 06:36:03;;;;;;;;;;;;;;;;;;4890939;28;93274;-82
2023/08/26 06:38:29;;;;;;;;;;;;;;;;;;4894353;28;96767;-82
2023/08/26 06:40:55;;;;;;;;;;;;;;;;;;4897114;28;124740;-81
2023/08/26 06:43:22;;;;;;;;;;;;;;;;;;4895045;28;122355;-81
2023/08/26 06:45:48;;;;;;;;;;;;;;;;;;4876798;28;120449;-81
2023/08/26 06:48:15;;;;;;;;;;;;;;;;;;4883397;28;120451;-82
2023/08/26 06:50:42;;;;;;;;;;;;;;;;;;4879420;28;93145;-81
2023/08/26 06:53:09;;;;;;;;;;;;;;;;;;4897837;28;103925;-80
2023/08/26 06:55:35;;;;;;;;;;;;;;;;;;4923495;28;121931;-81
2023/08/26 06:58:02;;;;;;;;;;;;;;;;;;4918920;28;104574;-81
2023/08/26 07:00:28;;;;;;;;;;;;;;;;;;4917270;28;122003;-81
2023/08/26 07:02:54;;;;;;;;;;;;;;;;;;4921489;28;92915;-82
2023/08/26 07:05:22;;;;;;;;;;;;;;;;;;4916533;28;120891;-81
2023/08/26 07:07:48;;;;;;;;;;;;;;;;;;4916934;28;93040;-81
2023/08/26 07:10:14;;;;;;;;;;;;;;;;;;4901578;28;108880;-81
2023/08/26 07:12:41;;;;;;;;;;;;;;;;;;4903580;28;93703;-81
2023/08/26 07:15:07;;;;;;;;;;;;;;;;;;4902878;28;121091;-81
2023/08/26 07:17:34;;;;;;;;;;;;;;;;;;4901757;28;122654;-81
2023/08/26 07:20:00;;;;;;;;;;;;;;;;;;4903752;28;104664;-82
2023/08/26 07:22:27;;;;;;;;;;;;;;;;;;4921137;28;92351;-82
2023/08/26 07:24:55;;;;;;;;;;;;;;;;;;4899725;28;117151;-81
2023/08/26 07:27:23;;;;;;;;;;;;;;;;;;4884682;28;94903;-82
2023/08/26 07:29:49;;;;;;;;;;;;;;;;;;4905940;28;121640;-82
2023/08/26 07:32:16;;;;;;;;;;;;;;;;;;4901836;28;123664;-82
2023/08/26 07:34:42;;;;;;;;;;;;;;;;;;4900534;28;121218;-82
2023/08/26 07:37:09;;;;;;;;;;;;;;;;;;4903859;28;92505;-82
2023/08/26 07:39:35;;;;;;;;;;;;;;;;;;4906691;28;120962;-80
2023/08/26 07:42:03;;;;;;;;;;;;;;;;;;4898717;28;121592;-81
2023/08/26 07:44:29;;;;;;;;;;;;;;;;;;4920952;28;113607;-81
2023/08/26 07:46:56;;;;;;;;;;;;;;;;;;4899149;28;104611;-83
2023/08/26 07:49:23;;;;;;;;;;;;;;;;;;4892238;28;94675;-83
2023/08/26 07:51:50;;;;;;;;;;;;;;;;;;4913027;28;122019;-83
2023/08/26 07:54:16;;;;;;;;;;;;;;;;;;4916028;28;94832;-83
2023/08/26 07:56:43;;;;;;;;;;;;;;;;;;4900088;28;92308;-84
2023/08/26 07:59:09;;;;;;;;;;;;;;;;;;4914160;28;120731;-83
2023/08/26 08:01:36;;;;;;;;;;;;;;;;;;4917683;28;108612;-83
2023/08/26 08:04:02;;;;;;;;;;;;;;;;;;4917212;28;112387;-84
2023/08/26 08:06:28;;;;;;;;;;;;;;;;;;4912428;28;106729;-83
2023/08/26 08:08:55;;;;;;;;;;;;;;;;;;4905517;28;122832;-86
2023/08/26 08:11:22;;;;;;;;;;;;;;;;;;4901224;28;97524;-82
2023/08/26 08:13:48;;;;;;;;;;;;;;;;;;4908206;28;119312;-82
2023/08/26 08:16:14;;;;;;;;;;;;;;;;;;4916329;28;92501;-82
2023/08/26 08:18:41;;;;;;;;;;;;;;;;;;4918851;28;121923;-82
2023/08/26 08:21:08;;;;;;;;;;;;;;;;;;4921570;28;121646;-82
2023/08/26 08:23:35;;;;;;;;;;;;;;;;;;4904338;28;120940;-81
2023/08/26 08:26:02;;;;;;;;;;;;;;;;;;4917749;28;122322;-82
2023/08/26 08:28:28;;;;;;;;;;;;;;;;;;4899064;28;121075;-82
2023/08/26 08:30:54;;;;;;;;;;;;;;;;;;4917827;28;93726;-82
2023/08/26 08:33:21;;;;;;;;;;;;;;;;;;4916695;28;120612;-81
2023/08/26 08:35:47;;;;;;;;;;;;;;;;;;4909203;28;94982;-82
2023/08/26 08:38:14;;;;;;;;;;;;;;;;;;4903100;28;119917;-82
2023/08/26 08:40:40;;;;;;;;;;;;;;;;;;4904593;28;93729;-80
2023/08/26 08:43:06;;;;;;;;;;;;;;;;;;4891758;28;95036;-80
2023/08/26 08:45:33;;;;;;;;;;;;;;;;;;4916254;28;123149;-80
2023/08/26 08:47:59;;;;;;;;;;;;;;;;;;4918795;28;104730;-80
2023/08/26 08:50:26;;;;;;;;;;;;;;;;;;4895076;28;121980;-80
2023/08/26 08:52:52;;;;;;;;;;;;;;;;;;4885939;28;118447;-81
2023/08/26 08:55:19;;;;;;;;;;;;;;;;;;4908547;28;92690;-81
2023/08/26 08:57:46;;;;;;;;;;;;;;;;;;4883737;28;121615;-79
2023/08/26 09:00:13;;;;;;;;;;;;;;;;;;4895720;28;117075;-87
2023/08/26 09:02:43;;;;;;;;;;;;;;;;;;4897418;28;119288;-81
2023/08/26 09:05:09;;;;;;;;;;;;;;;;;;4920806;28;122150;-80
2023/08/26 09:07:36;;;;;;;;;;;;;;;;;;4917117;28;100751;-81
2023/08/26 09:10:02;;;;;;;;;;;;;;;;;;4905689;28;122467;-80
2023/08/26 09:12:28;;;;;;;;;;;;;;;;;;4913750;28;121667;-80
2023/08/26 09:14:55;;;;;;;;;;;;;;;;;;4923794;28;116772;-80
2023/08/26 09:17:21;;;;;;;;;;;;;;;;;;4923364;28;120604;-82
2023/08/26 09:19:48;;;;;;;;;;;;;;;;;;4920086;28;122010;-82
2023/08/26 09:22:16;;;;;;;;;;;;;;;;;;4921332;28;103385;-81
2023/08/26 09:24:43;;;;;;;;;;;;;;;;;;4926522;28;120696;-82
2023/08/26 09:27:09;;;;;;;;;;;;;;;;;;4921291;28;121331;-81
2023/08/26 09:29:35;;;;;;;;;;;;;;;;;;4911447;28;120131;-81
2023/08/26 09:32:03;;;;;;;;;;;;;;;;;;4920528;28;124107;-82
2023/08/26 09:34:30;;;;;;;;;;;;;;;;;;4922458;28;92452;-81
2023/08/26 09:36:56;;;;;;;;;;;;;;;;;;4900426;28;124591;-80
2023/08/26 09:39:23;;;;;;;;;;;;;;;;;;4902634;28;121398;-80
2023/08/26 09:41:49;;;;;;;;;;;;;;;;;;4917050;28;107781;-80
2023/08/26 09:44:16;;;;;;;;;;;;;;;;;;4883265;28;110565;-81
2023/08/26 09:46:42;;;;;;;;;;;;;;;;;;4912566;28;92462;-81
2023/08/26 09:49:09;;;;;;;;;;;;;;;;;;4912064;28;122114;-82
2023/08/26 09:51:36;;;;;;;;;;;;;;;;;;4918152;28;117669;-83
2023/08/26 09:54:02;;;;;;;;;;;;;;;;;;4905293;28;105817;-82
2023/08/26 09:56:29;;;;;;;;;;;;;;;;;;4913743;28;95200;-82
2023/08/26 09:58:55;;;;;;;;;;;;;;;;;;4885478;28;123123;-80
2023/08/26 10:01:22;;;;;;;;;;;;;;;;;;4889004;28;109587;-81
2023/08/26 10:03:48;;;;;;;;;;;;;;;;;;4897892;28;92547;-82
2023/08/26 10:06:16;;;;;;;;;;;;;;;;;;4917732;28;92899;-82
2023/08/26 10:08:42;;;;;;;;;;;;;;;;;;4900584;28;117844;-81
2023/08/26 10:11:08;;;;;;;;;;;;;;;;;;4896039;28;122728;-81
2023/08/26 10:13:35;;;;;;;;;;;;;;;;;;4919178;28;96063;-81
2023/08/26 10:16:01;;;;;;;;;;;;;;;;;;4915205;28;114309;-81
2023/08/26 10:18:29;;;;;;;;;;;;;;;;;;4877136;28;124736;-82
2023/08/26 10:20:55;;;;;;;;;;;;;;;;;;4900660;28;122419;-82
2023/08/26 10:23:22;;;;;;;;;;;;;;;;;;4919274;28;107874;-81
2023/08/26 10:25:50;;;;;;;;;;;;;;;;;;4903398;28;121411;-82
2023/08/26 10:28:16;;;;;;;;;;;;;;;;;;4914055;28;110717;-84
2023/08/26 10:30:43;;;;;;;;;;;;;;;;;;4886740;28;94775;-84
2023/08/26 10:33:09;;;;;;;;;;;;;;;;;;4924748;28;119321;-84
2023/08/26 10:35:36;;;;;;;;;;;;;;;;;;4890181;28;118082;-86
2023/08/26 10:38:02;;;;;;;;;;;;;;;;;;4903068;28;122135;-87
2023/08/26 10:40:28;;;;;;;;;;;;;;;;;;4901687;28;92466;-86
2023/08/26 10:42:56;;;;;;;;;;;;;;;;;;4898386;28;94022;-86
2023/08/26 10:45:22;;;;;;;;;;;;;;;;;;4884759;28;107209;-86
2023/08/26 10:47:48;;;;;;;;;;;;;;;;;;4897567;28;122250;-86
2023/08/26 10:50:15;;;;;;;;;;;;;;;;;;4908625;28;97752;-86
2023/08/26 10:52:41;;;;;;;;;;;;;;;;;;4901779;28;123214;-86
2023/08/26 10:55:08;;;;;;;;;;;;;;;;;;4914489;28;120812;-86
2023/08/26 10:57:35;;;;;;;;;;;;;;;;;;4893355;28;124737;-87
2023/08/26 11:00:02;;;;;;;;;;;;;;;;;;4899672;28;112355;-87
2023/08/26 11:02:29;;;;;;;;;;;;;;;;;;4883879;28;121281;-87
2023/08/26 11:04:55;;;;;;;;;;;;;;;;;;4897712;28;95468;-87
2023/08/26 11:07:22;;;;;;;;;;;;;;;;;;4913097;28;121693;-88
2023/08/26 11:09:48;;;;;;;;;;;;;;;;;;4894366;28;94988;-88
2023/08/26 11:12:15;;;;;;;;;;;;;;;;;;4895803;28;99252;-87
2023/08/26 11:14:41;;;;;;;;;;;;;;;;;;4891170;28;94204;-88
2023/08/26 11:17:08;;;;;;;;;;;;;;;;;;4892129;28;109977;-87
2023/08/26 11:19:34;;;;;;;;;;;;;;;;;;4916620;28;92434;-89
2023/08/26 11:22:01;;;;;;;;;;;;;;;;;;4909552;28;118641;-87
2023/08/26 11:24:30;;;;;;;;;;;;;;;;;;4909471;28;96336;-82
2023/08/26 11:26:56;;;;;;;;;;;;;;;;;;4920697;28;118687;-81
2023/08/26 11:29:22;;;;;;;;;;;;;;;;;;4919194;28;100503;-81
2023/08/26 11:31:49;;;;;;;;;;;;;;;;;;4921771;28;92296;-81
2023/08/26 11:34:16;;;;;;;;;;;;;;;;;;4917448;28;120208;-82
2023/08/26 11:36:42;;;;;;;;;;;;;;;;;;4918347;28;94123;-82
2023/08/26 11:39:09;;;;;;;;;;;;;;;;;;4896461;28;105888;-82
2023/08/26 11:41:35;;;;;;;;;;;;;;;;;;4914501;28;118372;-82
2023/08/26 11:44:01;;;;;;;;;;;;;;;;;;4900584;28;121033;-83
2023/08/26 11:46:28;;;;;;;;;;;;;;;;;;4897900;28;121084;-82
2023/08/26 11:48:54;;;;;;;;;;;;;;;;;;4906678;28;95775;-81
2023/08/26 11:51:21;;;;;;;;;;;;;;;;;;4905363;28;95309;-81
2023/08/26 11:53:47;;;;;;;;;;;;;;;;;;4889627;28;120888;-81
2023/08/26 11:56:13;;;;;;;;;;;;;;;;;;4919290;28;122009;-82
2023/08/26 11:58:40;;;;;;;;;;;;;;;;;;4918537;28;123818;-81
2023/08/26 12:01:07;;;;;;;;;;;;;;;;;;4921167;28;104854;-82
2023/08/26 12:03:34;;;;;;;;;;;;;;;;;;4922951;28;122002;-81
2023/08/26 12:06:00;;;;;;;;;;;;;;;;;;4920198;28;103037;-81
2023/08/26 12:08:27;;;;;;;;;;;;;;;;;;4898128;28;117422;-82
2023/08/26 12:10:53;;;;;;;;;;;;;;;;;;4905515;28;122538;-82
2023/08/26 12:13:20;;;;;;;;;;;;;;;;;;4904117;28;122608;-83
2023/08/26 12:15:46;;;;;;;;;;;;;;;;;;4903446;28;124898;-83
2023/08/26 12:18:13;;;;;;;;;;;;;;;;;;4895643;28;105296;-83
2023/08/26 12:20:44;;;;;;;;;;;;;;;;;;4888863;28;92816;-81
2023/08/26 12:23:11;;;;;;;;;;;;;;;;;;4916083;28;118456;-82
2023/08/26 12:25:37;;;;;;;;;;;;;;;;;;4913472;28;92421;-82
2023/08/26 12:28:04;;;;;;;;;;;;;;;;;;4876322;28;123167;-81
2023/08/26 12:30:30;;;;;;;;;;;;;;;;;;4916294;28;92370;-82
2023/08/26 12:32:57;;;;;;;;;;;;;;;;;;4911668;28;119016;-81
2023/08/26 12:35:23;;;;;;;;;;;;;;;;;;4895437;28;99120;-82
2023/08/26 12:37:50;;;;;;;;;;;;;;;;;;4917450;28;121113;-82
2023/08/26 12:40:17;;;;;;;;;;;;;;;;;;4880521;28;102860;-82
2023/08/26 12:42:43;;;;;;;;;;;;;;;;;;4874345;28;122654;-82
2023/08/26 12:45:09;;;;;;;;;;;;;;;;;;4903755;28;122733;-81
2023/08/26 12:47:36;;;;;;;;;;;;;;;;;;4897017;28;121870;-81
2023/08/26 12:50:03;;;;;;;;;;;;;;;;;;4915257;28;92455;-81
2023/08/26 12:52:30;;;;;;;;;;;;;;;;;;4882628;28;122636;-81
2023/08/26 12:54:56;;;;;;;;;;;;;;;;;;4882846;28;121988;-81
2023/08/26 12:57:22;;;;;;;;;;;;;;;;;;4914134;28;116560;-81
2023/08/26 12:59:49;;;;;;;;;;;;;;;;;;4916877;28;121185;-81
2023/08/26 13:02:15;;;;;;;;;;;;;;;;;;4916878;28;122239;-81
2023/08/26 13:04:41;;;;;;;;;;;;;;;;;;4915425;28;99860;-81
2023/08/26 13:07:08;;;;;;;;;;;;;;;;;;4898026;28;118792;-81
2023/08/26 13:09:34;;;;;;;;;;;;;;;;;;4917733;28;121386;-81
2023/08/26 13:12:01;;;;;;;;;;;;;;;;;;4917888;28;110139;-81
2023/08/26 13:14:27;;;;;;;;;;;;;;;;;;4889820;28;123088;-81
2023/08/26 13:16:54;;;;;;;;;;;;;;;;;;4899011;28;122679;-81
2023/08/26 13:19:21;;;;;;;;;;;;;;;;;;4915715;28;117861;-81
2023/08/26 13:21:49;;;;;;;;;;;;;;;;;;4920823;28;120694;-81
2023/08/26 13:24:15;;;;;;;;;;;;;;;;;;4903150;28;121424;-82
2023/08/26 13:26:42;;;;;;;;;;;;;;;;;;4901172;28;92480;-81
2023/08/26 13:29:08;;;;;;;;;;;;;;;;;;4899954;28;104269;-81
2023/08/26 13:31:35;;;;;;;;;;;;;;;;;;4901163;28;100979;-81
2023/08/26 13:34:03;;;;;;;;;;;;;;;;;;4920441;28;114998;-81
2023/08/26 13:36:29;;;;;;;;;;;;;;;;;;4896906;28;122915;-81
2023/08/26 13:39:08;;;;;;;;;;;;;;;;;;4915656;28;92408;-81
2023/08/26 13:41:35;;;;;;;;;;;;;;;;;;4896157;28;92318;-81
2023/08/26 13:44:02;;;;;;;;;;;;;;;;;;4913724;28;93441;-81
2023/08/26 13:46:28;;;;;;;;;;;;;;;;;;4898967;28;121282;-83
2023/08/26 13:48:57;;;;;;;;;;;;;;;;;;4877224;28;115002;-82
2023/08/26 13:51:23;;;;;;;;;;;;;;;;;;4909827;28;106189;-82
2023/08/26 13:53:49;;;;;;;;;;;;;;;;;;4907230;28;121864;-82
2023/08/26 13:56:16;;;;;;;;;;;;;;;;;;4896958;28;104946;-82
2023/08/26 13:58:42;;;;;;;;;;;;;;;;;;4916991;28;115402;-83
2023/08/26 14:01:09;;;;;;;;;;;;;;;;;;4895115;28;103089;-83
2023/08/26 14:03:35;;;;;;;;;;;;;;;;;;4917512;28;122825;-83
2023/08/26 14:06:02;;;;;;;;;;;;;;;;;;4897995;28;121317;-82
2023/08/26 14:08:28;;;;;;;;;;;;;;;;;;4914052;28;107257;-82
2023/08/26 14:10:55;;;;;;;;;;;;;;;;;;4913480;28;92945;-83
2023/08/26 14:13:21;;;;;;;;;;;;;;;;;;4896156;28;120640;-82
2023/08/26 14:15:47;;;;;;;;;;;;;;;;;;4915030;28;97187;-83
2023/08/26 14:18:14;;;;;;;;;;;;;;;;;;4910241;28;122108;-83
2023/08/26 14:20:40;;;;;;;;;;;;;;;;;;4913451;28;120036;-83
2023/08/26 14:23:06;;;;;;;;;;;;;;;;;;4903435;28;107012;-82
2023/08/26 14:25:33;;;;;;;;;;;;;;;;;;4911795;28;121100;-82
2023/08/26 14:27:59;;;;;;;;;;;;;;;;;;4915386;28;123697;-83
2023/08/26 14:30:25;;;;;;;;;;;;;;;;;;4892414;28;121172;-83
2023/08/26 14:32:52;;;;;;;;;;;;;;;;;;4907828;28;98955;-83
2023/08/26 14:35:18;;;;;;;;;;;;;;;;;;4905851;28;92380;-82
2023/08/26 14:37:45;;;;;;;;;;;;;;;;;;4892283;28;122032;-83
2023/08/26 14:40:11;;;;;;;;;;;;;;;;;;4895775;28;121915;-82
2023/08/26 14:42:38;;;;;;;;;;;;;;;;;;4898305;28;92185;-82
2023/08/26 14:45:04;;;;;;;;;;;;;;;;;;4892532;28;118672;-83
2023/08/26 14:47:30;;;;;;;;;;;;;;;;;;4903802;28;119866;-83
2023/08/26 14:49:57;;;;;;;;;;;;;;;;;;4897755;28;97684;-82
2023/08/26 14:52:23;;;;;;;;;;;;;;;;;;4892159;28;123004;-82
2023/08/26 14:54:50;;;;;;;;;;;;;;;;;;4909507;28;120804;-82
2023/08/26 14:57:16;;;;;;;;;;;;;;;;;;4919043;28;117693;-82
2023/08/26 14:59:43;;;;;;;;;;;;;;;;;;4894221;28;121705;-82
2023/08/26 15:02:12;;;;;;;;;;;;;;;;;;4892612;28;121357;-82
2023/08/26 15:04:40;;;;;;;;;;;;;;;;;;4896352;28;94086;-82
2023/08/26 15:07:13;;;;;;;;;;;;;;;;;;4912023;28;94880;-83
2023/08/26 15:09:40;;;;;;;;;;;;;;;;;;4901220;28;92442;-82
2023/08/26 15:12:06;;;;;;;;;;;;;;;;;;4899263;28;120842;-82
2023/08/26 15:14:33;;;;;;;;;;;;;;;;;;4905327;28;123788;-83
2023/08/26 15:16:59;;;;;;;;;;;;;;;;;;4896766;28;121134;-82
2023/08/26 15:19:26;;;;;;;;;;;;;;;;;;4892939;28;101427;-83
2023/08/26 15:21:52;;;;;;;;;;;;;;;;;;4907098;28;95502;-83
2023/08/26 15:24:18;;;;;;;;;;;;;;;;;;4893614;28;122392;-83
2023/08/26 15:26:45;;;;;;;;;;;;;;;;;;4913997;28;121273;-83
2023/08/26 15:29:11;;;;;;;;;;;;;;;;;;4916736;28;103163;-83
2023/08/26 15:31:37;;;;;;;;;;;;;;;;;;4912675;28;121046;-83
2023/08/26 15:34:04;;;;;;;;;;;;;;;;;;4920838;28;119769;-83
2023/08/26 15:36:30;;;;;;;;;;;;;;;;;;4907916;28;121736;-82
2023/08/26 15:38:57;;;;;;;;;;;;;;;;;;4914824;28;115848;-83
2023/08/26 15:41:23;;;;;;;;;;;;;;;;;;4914973;28;122470;-83
2023/08/26 15:43:50;;;;;;;;;;;;;;;;;;4879338;28;118760;-83
2023/08/26 15:46:16;;;;;;;;;;;;;;;;;;4904241;28;92824;-84
2023/08/26 15:48:42;;;;;;;;;;;;;;;;;;4916260;28;122776;-84
2023/08/26 15:51:09;;;;;;;;;;;;;;;;;;4904358;28;95260;-83
2023/08/26 15:53:35;;;;;;;;;;;;;;;;;;4892780;28;120999;-82
2023/08/26 15:56:02;;;;;;;;;;;;;;;;;;4919900;28;120418;-83
2023/08/26 15:58:28;;;;;;;;;;;;;;;;;;4903236;28;121200;-83
2023/08/26 16:00:54;;;;;;;;;;;;;;;;;;4919422;28;105843;-83
2023/08/26 16:03:21;;;;;;;;;;;;;;;;;;4918603;28;102484;-83
2023/08/26 16:05:47;;;;;;;;;;;;;;;;;;4922266;28;93841;-83
2023/08/26 16:08:14;;;;;;;;;;;;;;;;;;4916070;28;107942;-83
2023/08/26 16:10:40;;;;;;;;;;;;;;;;;;4916904;28;121858;-83
2023/08/26 16:13:07;;;;;;;;;;;;;;;;;;4894076;28;122099;-83
2023/08/26 16:15:33;;;;;;;;;;;;;;;;;;4920162;28;115956;-83
2023/08/26 16:18:00;;;;;;;;;;;;;;;;;;4898019;28;121959;-83
2023/08/26 16:20:26;;;;;;;;;;;;;;;;;;4902505;28;94707;-83
2023/08/26 16:22:53;;;;;;;;;;;;;;;;;;4913254;28;118124;-83
2023/08/26 16:25:19;;;;;;;;;;;;;;;;;;4901872;28;94407;-83
2023/08/26 16:27:46;;;;;;;;;;;;;;;;;;4915891;28;125061;-83
2023/08/26 16:30:12;;;;;;;;;;;;;;;;;;4917571;28;122144;-83